PWSweather.com
Personal Weather Stations
Station Observations
MENWDWX1
Menstrie, ScotlandGB

MenstrieScotlandGB

Lat: 56.148322, Lon: -3.85483

Elevation: 62

Station Type: Davis Vantage Pro 2

High Low Average
Temperature 72.3°F22.4°C 49.2°F9.6°C 58.0°F14.4°C
Dew Point 57.8°F14.3°C 42.3°F5.7°C 49.3°F9.6°C
Winds 9.2 mph 14.8 kmh Calm Calm 3.0 mph SE4.8 kmh SE
Wind Gusts 13.8 mph22.2 kmh -- 4.0 mph6.4 kmh
Humidity 78% 58% 73%
Pressure 30.06 in1017.9 mb 29.95 in1014.2 mb -
Precipitation 0.03 in0.8 mm - -
Hour Temp Dew Point Humidity Winds Wind Gusts Pressure Precip Precip Rate Daily Precip Total
12:00 AM 52.1°F11.2°C 45.1°F7.3°C 77% Calm Calm -- 30.05 in1017.6 mb - 0.00 in0.0 mm 0.00 in0.0 mm
12:05 AM 52.0°F11.1°C 45.0°F7.2°C 77% Calm Calm -- 30.05 in1017.6 mb - 0.00 in0.0 mm 0.00 in0.0 mm
12:10 AM 51.8°F11.0°C 44.8°F7.1°C 77% Calm Calm -- 30.05 in1017.6 mb - 0.00 in0.0 mm 0.00 in0.0 mm
12:15 AM 51.7°F10.9°C 44.7°F7.1°C 77% Calm Calm -- 30.06 in1017.9 mb - 0.00 in0.0 mm 0.00 in0.0 mm
12:20 AM 51.7°F10.9°C 44.7°F7.1°C 77% Calm Calm -- 30.05 in1017.6 mb - 0.00 in0.0 mm 0.00 in0.0 mm
12:25 AM 51.6°F10.9°C 44.6°F7.0°C 77% Calm Calm -- 30.05 in1017.6 mb - 0.00 in0.0 mm 0.00 in0.0 mm
12:30 AM 51.6°F10.9°C 44.6°F7.0°C 77% 1.2 mph NE1.9 kmh NE 2.3 mph3.7 kmh 30.05 in1017.6 mb - 0.00 in0.0 mm 0.00 in0.0 mm
12:35 AM 51.5°F10.8°C 44.5°F6.9°C 77% 1.2 mph N1.9 kmh N 2.3 mph3.7 kmh 30.05 in1017.6 mb - 0.00 in0.0 mm 0.00 in0.0 mm
12:40 AM 51.4°F10.8°C 44.4°F6.9°C 77% 2.3 mph N3.7 kmh N 2.3 mph3.7 kmh 30.05 in1017.6 mb - 0.00 in0.0 mm 0.00 in0.0 mm
12:45 AM 51.3°F10.7°C 44.3°F6.8°C 77% 1.2 mph N1.9 kmh N 2.3 mph3.7 kmh 30.05 in1017.6 mb - 0.00 in0.0 mm 0.00 in0.0 mm
12:50 AM 51.2°F10.7°C 44.2°F6.8°C 77% 1.2 mph N1.9 kmh N 2.3 mph3.7 kmh 30.05 in1017.6 mb - 0.00 in0.0 mm 0.00 in0.0 mm
12:55 AM 51.1°F10.6°C 44.1°F6.7°C 77% 1.2 mph N1.9 kmh N 2.3 mph3.7 kmh 30.05 in1017.6 mb - 0.00 in0.0 mm 0.00 in0.0 mm
01:00 AM 51.0°F10.6°C 44.0°F6.7°C 77% 1.2 mph N1.9 kmh N 1.2 mph1.9 kmh 30.05 in1017.6 mb - 0.00 in0.0 mm 0.00 in0.0 mm
01:05 AM 50.9°F10.5°C 43.9°F6.6°C 77% 1.2 mph N1.9 kmh N 1.2 mph1.9 kmh 30.05 in1017.6 mb - 0.00 in0.0 mm 0.00 in0.0 mm
01:10 AM 50.8°F10.4°C 43.8°F6.6°C 77% Calm Calm -- 30.05 in1017.6 mb - 0.00 in0.0 mm 0.00 in0.0 mm
01:15 AM 50.6°F10.3°C 43.7°F6.5°C 77% Calm Calm -- 30.05 in1017.6 mb - 0.00 in0.0 mm 0.00 in0.0 mm
01:20 AM 50.5°F10.3°C 43.6°F6.4°C 77% 1.2 mph N1.9 kmh N 1.2 mph1.9 kmh 30.05 in1017.6 mb - 0.00 in0.0 mm 0.00 in0.0 mm
01:25 AM 50.4°F10.2°C 43.5°F6.4°C 77% Calm Calm 1.2 mph1.9 kmh 30.05 in1017.6 mb - 0.00 in0.0 mm 0.00 in0.0 mm
01:30 AM 50.3°F10.2°C 43.4°F6.3°C 77% Calm Calm -- 30.05 in1017.6 mb - 0.00 in0.0 mm 0.00 in0.0 mm
01:35 AM 50.2°F10.1°C 43.2°F6.2°C 77% Calm Calm 2.3 mph3.7 kmh 30.05 in1017.6 mb - 0.00 in0.0 mm 0.00 in0.0 mm
01:40 AM 50.0°F10.0°C 43.1°F6.2°C 77% 1.2 mph N1.9 kmh N 3.5 mph5.6 kmh 30.05 in1017.6 mb - 0.00 in0.0 mm 0.00 in0.0 mm
01:45 AM 49.9°F9.9°C 43.0°F6.1°C 77% 2.3 mph N3.7 kmh N 3.5 mph5.6 kmh 30.05 in1017.6 mb - 0.00 in0.0 mm 0.00 in0.0 mm
01:50 AM 49.9°F9.9°C 43.0°F6.1°C 77% 1.2 mph N1.9 kmh N 3.5 mph5.6 kmh 30.05 in1017.6 mb - 0.00 in0.0 mm 0.00 in0.0 mm
01:55 AM 49.9°F9.9°C 43.0°F6.1°C 77% 3.5 mph NW5.6 kmh NW 3.5 mph5.6 kmh 30.05 in1017.6 mb - 0.00 in0.0 mm 0.00 in0.0 mm
02:00 AM 49.9°F9.9°C 43.0°F6.1°C 77% 2.3 mph NNW3.7 kmh NNW 3.5 mph5.6 kmh 30.05 in1017.6 mb - 0.00 in0.0 mm 0.00 in0.0 mm
02:05 AM 49.8°F9.9°C 42.9°F6.1°C 77% 3.5 mph N5.6 kmh N 4.6 mph7.4 kmh 30.05 in1017.6 mb - 0.00 in0.0 mm 0.00 in0.0 mm
02:10 AM 49.7°F9.8°C 42.8°F6.0°C 77% 2.3 mph NNE3.7 kmh NNE 3.5 mph5.6 kmh 30.05 in1017.6 mb - 0.00 in0.0 mm 0.00 in0.0 mm
02:15 AM 49.7°F9.8°C 42.8°F6.0°C 77% 3.5 mph N5.6 kmh N 4.6 mph7.4 kmh 30.04 in1017.3 mb - 0.00 in0.0 mm 0.00 in0.0 mm
02:20 AM 49.7°F9.8°C 42.8°F6.0°C 77% 2.3 mph NNE3.7 kmh NNE 3.5 mph5.6 kmh 30.05 in1017.6 mb - 0.00 in0.0 mm 0.00 in0.0 mm
02:25 AM 49.7°F9.8°C 42.8°F6.0°C 77% 1.2 mph N1.9 kmh N 3.5 mph5.6 kmh 30.05 in1017.6 mb - 0.00 in0.0 mm 0.00 in0.0 mm
02:30 AM 49.7°F9.8°C 42.8°F6.0°C 77% Calm Calm -- 30.04 in1017.3 mb - 0.00 in0.0 mm 0.00 in0.0 mm
02:35 AM 49.7°F9.8°C 42.8°F6.0°C 77% Calm Calm 3.5 mph5.6 kmh 30.04 in1017.3 mb - 0.00 in0.0 mm 0.00 in0.0 mm
02:40 AM 49.6°F9.8°C 42.7°F5.9°C 77% 2.3 mph NNE3.7 kmh NNE 3.5 mph5.6 kmh 30.04 in1017.3 mb - 0.00 in0.0 mm 0.00 in0.0 mm
02:45 AM 49.5°F9.7°C 42.6°F5.9°C 77% 2.3 mph NNE3.7 kmh NNE 3.5 mph5.6 kmh 30.04 in1017.3 mb - 0.00 in0.0 mm 0.00 in0.0 mm
02:50 AM 49.5°F9.7°C 42.6°F5.9°C 77% 1.2 mph NE1.9 kmh NE 3.5 mph5.6 kmh 30.04 in1017.3 mb - 0.00 in0.0 mm 0.00 in0.0 mm
02:55 AM 49.6°F9.8°C 42.7°F5.9°C 77% 2.3 mph NE3.7 kmh NE 2.3 mph3.7 kmh 30.04 in1017.3 mb - 0.00 in0.0 mm 0.00 in0.0 mm
03:00 AM 49.6°F9.8°C 42.7°F5.9°C 77% 1.2 mph NE1.9 kmh NE 1.2 mph1.9 kmh 30.04 in1017.3 mb - 0.00 in0.0 mm 0.00 in0.0 mm
03:05 AM 49.5°F9.7°C 42.6°F5.9°C 77% 1.2 mph NE1.9 kmh NE 1.2 mph1.9 kmh 30.04 in1017.3 mb - 0.00 in0.0 mm 0.00 in0.0 mm
03:10 AM 49.5°F9.7°C 42.6°F5.9°C 77% Calm Calm -- 30.04 in1017.3 mb - 0.00 in0.0 mm 0.00 in0.0 mm
03:15 AM 49.4°F9.7°C 42.5°F5.8°C 77% 1.2 mph NE1.9 kmh NE 2.3 mph3.7 kmh 30.04 in1017.3 mb - 0.00 in0.0 mm 0.00 in0.0 mm
03:20 AM 49.4°F9.7°C 42.5°F5.8°C 77% 2.3 mph NE3.7 kmh NE 3.5 mph5.6 kmh 30.04 in1017.3 mb - 0.00 in0.0 mm 0.00 in0.0 mm
03:25 AM 49.4°F9.7°C 42.5°F5.8°C 77% 1.2 mph NE1.9 kmh NE 2.3 mph3.7 kmh 30.04 in1017.3 mb - 0.00 in0.0 mm 0.00 in0.0 mm
03:30 AM 49.5°F9.7°C 42.6°F5.9°C 77% 1.2 mph NE1.9 kmh NE 2.3 mph3.7 kmh 30.04 in1017.3 mb - 0.00 in0.0 mm 0.00 in0.0 mm
03:35 AM 49.5°F9.7°C 42.6°F5.9°C 77% 2.3 mph NNE3.7 kmh NNE 3.5 mph5.6 kmh 30.04 in1017.3 mb - 0.00 in0.0 mm 0.00 in0.0 mm
03:40 AM 49.5°F9.7°C 42.6°F5.9°C 77% 1.2 mph NNE1.9 kmh NNE 3.5 mph5.6 kmh 30.04 in1017.3 mb - 0.00 in0.0 mm 0.00 in0.0 mm
03:45 AM 49.4°F9.7°C 42.5°F5.8°C 77% 1.2 mph NNE1.9 kmh NNE 2.3 mph3.7 kmh 30.04 in1017.3 mb - 0.00 in0.0 mm 0.00 in0.0 mm
03:50 AM 49.4°F9.7°C 42.5°F5.8°C 77% 1.2 mph NNE1.9 kmh NNE 2.3 mph3.7 kmh 30.04 in1017.3 mb - 0.00 in0.0 mm 0.00 in0.0 mm
03:55 AM 49.3°F9.6°C 42.4°F5.8°C 77% Calm Calm 2.3 mph3.7 kmh 30.04 in1017.3 mb - 0.00 in0.0 mm 0.00 in0.0 mm
04:00 AM 49.3°F9.6°C 42.4°F5.8°C 77% 2.3 mph NNE3.7 kmh NNE 2.3 mph3.7 kmh 30.04 in1017.3 mb - 0.00 in0.0 mm 0.00 in0.0 mm
04:05 AM 49.3°F9.6°C 42.4°F5.8°C 77% 1.2 mph NNE1.9 kmh NNE 3.5 mph5.6 kmh 30.03 in1016.9 mb - 0.00 in0.0 mm 0.00 in0.0 mm
04:10 AM 49.2°F9.6°C 42.3°F5.7°C 77% 1.2 mph NNE1.9 kmh NNE 3.5 mph5.6 kmh 30.04 in1017.3 mb - 0.00 in0.0 mm 0.00 in0.0 mm
04:15 AM 49.2°F9.6°C 42.3°F5.7°C 77% 3.5 mph N5.6 kmh N 3.5 mph5.6 kmh 30.04 in1017.3 mb - 0.00 in0.0 mm 0.00 in0.0 mm
04:20 AM 49.2°F9.6°C 42.3°F5.7°C 77% 2.3 mph N3.7 kmh N 3.5 mph5.6 kmh 30.04 in1017.3 mb - 0.00 in0.0 mm 0.00 in0.0 mm
04:25 AM 49.2°F9.6°C 42.3°F5.7°C 77% 2.3 mph N3.7 kmh N 3.5 mph5.6 kmh 30.03 in1016.9 mb - 0.00 in0.0 mm 0.00 in0.0 mm
04:30 AM 49.2°F9.6°C 42.3°F5.7°C 77% 3.5 mph NNE5.6 kmh NNE 3.5 mph5.6 kmh 30.03 in1016.9 mb - 0.00 in0.0 mm 0.00 in0.0 mm
04:35 AM 49.2°F9.6°C 42.3°F5.7°C 77% 3.5 mph N5.6 kmh N 4.6 mph7.4 kmh 30.03 in1016.9 mb - 0.00 in0.0 mm 0.00 in0.0 mm
04:40 AM 49.2°F9.6°C 42.3°F5.7°C 77% 1.2 mph N1.9 kmh N 3.5 mph5.6 kmh 30.03 in1016.9 mb - 0.00 in0.0 mm 0.00 in0.0 mm
04:45 AM 49.3°F9.6°C 42.4°F5.8°C 77% Calm Calm -- 30.03 in1016.9 mb - 0.00 in0.0 mm 0.00 in0.0 mm
04:50 AM 49.3°F9.6°C 42.4°F5.8°C 77% 3.5 mph N5.6 kmh N 3.5 mph5.6 kmh 30.03 in1016.9 mb - 0.00 in0.0 mm 0.00 in0.0 mm
04:55 AM 49.3°F9.6°C 42.4°F5.8°C 77% 1.2 mph N1.9 kmh N 1.2 mph1.9 kmh 30.03 in1016.9 mb - 0.00 in0.0 mm 0.00 in0.0 mm
05:00 AM 49.3°F9.6°C 42.4°F5.8°C 77% Calm Calm -- 30.03 in1016.9 mb - 0.00 in0.0 mm 0.00 in0.0 mm
05:05 AM 49.4°F9.7°C 42.5°F5.8°C 77% Calm Calm -- 30.03 in1016.9 mb - 0.00 in0.0 mm 0.00 in0.0 mm
05:10 AM 49.4°F9.7°C 42.5°F5.8°C 77% Calm Calm -- 30.03 in1016.9 mb - 0.00 in0.0 mm 0.00 in0.0 mm
05:15 AM 49.5°F9.7°C 42.6°F5.9°C 77% Calm Calm -- 30.03 in1016.9 mb - 0.00 in0.0 mm 0.00 in0.0 mm
05:20 AM 49.6°F9.8°C 42.7°F5.9°C 77% Calm Calm -- 30.04 in1017.3 mb - 0.00 in0.0 mm 0.00 in0.0 mm
05:25 AM 49.7°F9.8°C 42.8°F6.0°C 77% Calm Calm -- 30.03 in1016.9 mb - 0.00 in0.0 mm 0.00 in0.0 mm
05:30 AM 50.0°F10.0°C 43.4°F6.3°C 78% Calm Calm -- 30.03 in1016.9 mb - 0.00 in0.0 mm 0.00 in0.0 mm
05:35 AM 50.3°F10.2°C 43.7°F6.5°C 78% 1.2 mph NE1.9 kmh NE 2.3 mph3.7 kmh 30.03 in1016.9 mb - 0.00 in0.0 mm 0.00 in0.0 mm
05:40 AM 50.6°F10.3°C 43.6°F6.4°C 77% 1.2 mph NE1.9 kmh NE 2.3 mph3.7 kmh 30.03 in1016.9 mb - 0.00 in0.0 mm 0.00 in0.0 mm
05:45 AM 50.9°F10.5°C 43.9°F6.6°C 77% 1.2 mph NE1.9 kmh NE 1.2 mph1.9 kmh 30.03 in1016.9 mb - 0.00 in0.0 mm 0.00 in0.0 mm
05:50 AM 51.2°F10.7°C 44.2°F6.8°C 77% 1.2 mph SE1.9 kmh SE 3.5 mph5.6 kmh 30.03 in1016.9 mb - 0.00 in0.0 mm 0.00 in0.0 mm
05:55 AM 51.5°F10.8°C 44.5°F6.9°C 77% 1.2 mph SE1.9 kmh SE 3.5 mph5.6 kmh 30.04 in1017.3 mb - 0.00 in0.0 mm 0.00 in0.0 mm
06:00 AM 51.7°F10.9°C 44.7°F7.1°C 77% 2.3 mph ESE3.7 kmh ESE 3.5 mph5.6 kmh 30.04 in1017.3 mb - 0.00 in0.0 mm 0.00 in0.0 mm
06:05 AM 51.9°F11.1°C 44.9°F7.2°C 77% 1.2 mph ESE1.9 kmh ESE 2.3 mph3.7 kmh 30.04 in1017.3 mb - 0.00 in0.0 mm 0.00 in0.0 mm
06:10 AM 52.1°F11.2°C 45.1°F7.3°C 77% 2.3 mph ESE3.7 kmh ESE 3.5 mph5.6 kmh 30.04 in1017.3 mb - 0.00 in0.0 mm 0.00 in0.0 mm
06:15 AM 52.2°F11.2°C 45.2°F7.3°C 77% Calm Calm -- 30.04 in1017.3 mb - 0.00 in0.0 mm 0.00 in0.0 mm
06:20 AM 52.3°F11.3°C 45.3°F7.4°C 77% Calm Calm -- 30.04 in1017.3 mb - 0.00 in0.0 mm 0.00 in0.0 mm
06:25 AM 52.5°F11.4°C 45.5°F7.5°C 77% 1.2 mph SE1.9 kmh SE 3.5 mph5.6 kmh 30.04 in1017.3 mb - 0.00 in0.0 mm 0.00 in0.0 mm
06:30 AM 52.7°F11.5°C 45.7°F7.6°C 77% 1.2 mph SE1.9 kmh SE 2.3 mph3.7 kmh 30.03 in1016.9 mb - 0.00 in0.0 mm 0.00 in0.0 mm
06:35 AM 53.0°F11.7°C 46.0°F7.8°C 77% 2.3 mph SE3.7 kmh SE 3.5 mph5.6 kmh 30.03 in1016.9 mb - 0.00 in0.0 mm 0.00 in0.0 mm
06:40 AM 53.2°F11.8°C 46.2°F7.9°C 77% 1.2 mph E1.9 kmh E 3.5 mph5.6 kmh 30.03 in1016.9 mb - 0.00 in0.0 mm 0.00 in0.0 mm
06:45 AM 53.5°F11.9°C 46.5°F8.1°C 77% 2.3 mph SE3.7 kmh SE 3.5 mph5.6 kmh 30.03 in1016.9 mb - 0.00 in0.0 mm 0.00 in0.0 mm
06:50 AM 53.6°F12.0°C 46.6°F8.1°C 77% 1.2 mph SE1.9 kmh SE 2.3 mph3.7 kmh 30.03 in1016.9 mb - 0.00 in0.0 mm 0.00 in0.0 mm
06:55 AM 53.9°F12.2°C 46.9°F8.3°C 77% 2.3 mph SE3.7 kmh SE 3.5 mph5.6 kmh 30.03 in1016.9 mb - 0.00 in0.0 mm 0.00 in0.0 mm
07:00 AM 54.2°F12.3°C 47.1°F8.4°C 77% 3.5 mph ESE5.6 kmh ESE 3.5 mph5.6 kmh 30.03 in1016.9 mb - 0.00 in0.0 mm 0.00 in0.0 mm
07:05 AM 54.3°F12.4°C 47.2°F8.4°C 77% 2.3 mph ESE3.7 kmh ESE 3.5 mph5.6 kmh 30.03 in1016.9 mb - 0.00 in0.0 mm 0.00 in0.0 mm
07:10 AM 54.7°F12.6°C 47.6°F8.7°C 77% Calm Calm -- 30.03 in1016.9 mb - 0.00 in0.0 mm 0.00 in0.0 mm
07:15 AM 55.1°F12.8°C 48.0°F8.9°C 77% 1.2 mph E1.9 kmh E 3.5 mph5.6 kmh 30.03 in1016.9 mb - 0.00 in0.0 mm 0.00 in0.0 mm
07:20 AM 55.4°F13.0°C 48.3°F9.1°C 77% 1.2 mph SE1.9 kmh SE 3.5 mph5.6 kmh 30.03 in1016.9 mb - 0.00 in0.0 mm 0.00 in0.0 mm
07:25 AM 55.5°F13.1°C 48.1°F8.9°C 76% 4.6 mph E7.4 kmh E 8.1 mph13.0 kmh 30.03 in1016.9 mb - 0.00 in0.0 mm 0.00 in0.0 mm
07:30 AM 55.8°F13.2°C 48.4°F9.1°C 76% 2.3 mph ESE3.7 kmh ESE 3.5 mph5.6 kmh 30.03 in1016.9 mb - 0.00 in0.0 mm 0.00 in0.0 mm
07:35 AM 56.2°F13.4°C 48.7°F9.3°C 76% 1.2 mph ESE1.9 kmh ESE 6.9 mph11.1 kmh 30.03 in1016.9 mb - 0.00 in0.0 mm 0.00 in0.0 mm
07:40 AM 56.4°F13.6°C 48.9°F9.4°C 76% 3.5 mph E5.6 kmh E 4.6 mph7.4 kmh 30.03 in1016.9 mb - 0.00 in0.0 mm 0.00 in0.0 mm
07:45 AM 56.2°F13.4°C 48.7°F9.3°C 76% 3.5 mph E5.6 kmh E 3.5 mph5.6 kmh 30.03 in1016.9 mb - 0.00 in0.0 mm 0.00 in0.0 mm
07:50 AM 56.2°F13.4°C 48.7°F9.3°C 76% 3.5 mph SE5.6 kmh SE 4.6 mph7.4 kmh 30.03 in1016.9 mb - 0.00 in0.0 mm 0.00 in0.0 mm
07:55 AM 56.4°F13.6°C 48.9°F9.4°C 76% 4.6 mph E7.4 kmh E 3.5 mph5.6 kmh 30.03 in1016.9 mb - 0.00 in0.0 mm 0.00 in0.0 mm
08:00 AM 56.5°F13.6°C 49.0°F9.4°C 76% 3.5 mph E5.6 kmh E 3.5 mph5.6 kmh 30.03 in1016.9 mb - 0.00 in0.0 mm 0.00 in0.0 mm
08:05 AM 56.4°F13.6°C 48.9°F9.4°C 76% 3.5 mph SSE5.6 kmh SSE 4.6 mph7.4 kmh 30.03 in1016.9 mb - 0.00 in0.0 mm 0.00 in0.0 mm
08:10 AM 56.3°F13.5°C 48.8°F9.3°C 76% 1.2 mph SE1.9 kmh SE 2.3 mph3.7 kmh 30.03 in1016.9 mb - 0.00 in0.0 mm 0.00 in0.0 mm
08:15 AM 56.3°F13.5°C 48.8°F9.3°C 76% 2.3 mph SE3.7 kmh SE 3.5 mph5.6 kmh 30.03 in1016.9 mb - 0.00 in0.0 mm 0.00 in0.0 mm
08:20 AM 56.4°F13.6°C 48.9°F9.4°C 76% 2.3 mph SSE3.7 kmh SSE 3.5 mph5.6 kmh 30.03 in1016.9 mb - 0.00 in0.0 mm 0.00 in0.0 mm
08:25 AM 56.4°F13.6°C 48.9°F9.4°C 76% 1.2 mph SE1.9 kmh SE 1.2 mph1.9 kmh 30.03 in1016.9 mb - 0.00 in0.0 mm 0.00 in0.0 mm
08:30 AM 56.6°F13.7°C 49.1°F9.5°C 76% 2.3 mph SSE3.7 kmh SSE 3.5 mph5.6 kmh 30.03 in1016.9 mb - 0.00 in0.0 mm 0.00 in0.0 mm
08:35 AM 56.8°F13.8°C 49.3°F9.6°C 76% 2.3 mph ESE3.7 kmh ESE 3.5 mph5.6 kmh 30.03 in1016.9 mb - 0.00 in0.0 mm 0.00 in0.0 mm
08:40 AM 57.1°F13.9°C 49.6°F9.8°C 76% 2.3 mph ESE3.7 kmh ESE 3.5 mph5.6 kmh 30.03 in1016.9 mb - 0.00 in0.0 mm 0.00 in0.0 mm
08:45 AM 57.2°F14.0°C 49.3°F9.6°C 75% 2.3 mph SSE3.7 kmh SSE 3.5 mph5.6 kmh 30.03 in1016.9 mb - 0.00 in0.0 mm 0.00 in0.0 mm
08:50 AM 57.3°F14.1°C 49.4°F9.7°C 75% 3.5 mph SE5.6 kmh SE 4.6 mph7.4 kmh 30.03 in1016.9 mb - 0.00 in0.0 mm 0.00 in0.0 mm
08:55 AM 57.4°F14.1°C 49.5°F9.7°C 75% 1.2 mph SE1.9 kmh SE 2.3 mph3.7 kmh 30.03 in1016.9 mb - 0.00 in0.0 mm 0.00 in0.0 mm
09:00 AM 57.7°F14.3°C 49.8°F9.9°C 75% 3.5 mph S5.6 kmh S 4.6 mph7.4 kmh 30.03 in1016.9 mb - 0.00 in0.0 mm 0.00 in0.0 mm
09:05 AM 57.9°F14.4°C 50.0°F10.0°C 75% 1.2 mph SE1.9 kmh SE 2.3 mph3.7 kmh 30.03 in1016.9 mb - 0.00 in0.0 mm 0.00 in0.0 mm
09:10 AM 58.2°F14.6°C 50.3°F10.2°C 75% 2.3 mph SSE3.7 kmh SSE 4.6 mph7.4 kmh 30.03 in1016.9 mb - 0.00 in0.0 mm 0.00 in0.0 mm
09:15 AM 58.7°F14.8°C 50.7°F10.4°C 75% 2.3 mph SSE3.7 kmh SSE 3.5 mph5.6 kmh 30.03 in1016.9 mb - 0.00 in0.0 mm 0.00 in0.0 mm
09:20 AM 59.1°F15.1°C 51.2°F10.7°C 75% 3.5 mph SE5.6 kmh SE 3.5 mph5.6 kmh 30.03 in1016.9 mb - 0.00 in0.0 mm 0.00 in0.0 mm
09:25 AM 59.5°F15.3°C 51.2°F10.7°C 74% 2.3 mph E3.7 kmh E 3.5 mph5.6 kmh 30.03 in1016.9 mb - 0.00 in0.0 mm 0.00 in0.0 mm
09:30 AM 60.0°F15.6°C 51.7°F10.9°C 74% 3.5 mph SE5.6 kmh SE 4.6 mph7.4 kmh 30.03 in1016.9 mb - 0.00 in0.0 mm 0.00 in0.0 mm
09:35 AM 60.5°F15.8°C 51.8°F11.0°C 73% 2.3 mph SE3.7 kmh SE 3.5 mph5.6 kmh 30.02 in1016.6 mb - 0.00 in0.0 mm 0.00 in0.0 mm
09:40 AM 61.1°F16.2°C 52.4°F11.3°C 73% 3.5 mph ESE5.6 kmh ESE 5.8 mph9.3 kmh 30.02 in1016.6 mb - 0.00 in0.0 mm 0.00 in0.0 mm
09:45 AM 61.7°F16.5°C 52.6°F11.4°C 72% 3.5 mph ESE5.6 kmh ESE 6.9 mph11.1 kmh 30.02 in1016.6 mb - 0.00 in0.0 mm 0.00 in0.0 mm
09:50 AM 62.1°F16.7°C 53.0°F11.7°C 72% 5.8 mph ESE9.3 kmh ESE 8.1 mph13.0 kmh 30.02 in1016.6 mb - 0.00 in0.0 mm 0.00 in0.0 mm
09:55 AM 62.6°F17.0°C 53.1°F11.7°C 71% 3.5 mph SE5.6 kmh SE 3.5 mph5.6 kmh 30.02 in1016.6 mb - 0.00 in0.0 mm 0.00 in0.0 mm
10:00 AM 62.8°F17.1°C 52.9°F11.6°C 70% 3.5 mph E5.6 kmh E 6.9 mph11.1 kmh 30.02 in1016.6 mb - 0.00 in0.0 mm 0.00 in0.0 mm
10:05 AM 63.1°F17.3°C 53.1°F11.7°C 70% 4.6 mph E7.4 kmh E 3.5 mph5.6 kmh 30.02 in1016.6 mb - 0.00 in0.0 mm 0.00 in0.0 mm
10:10 AM 63.1°F17.3°C 53.1°F11.7°C 70% 2.3 mph SE3.7 kmh SE 4.6 mph7.4 kmh 30.02 in1016.6 mb - 0.00 in0.0 mm 0.00 in0.0 mm
10:15 AM 63.4°F17.4°C 53.5°F11.9°C 70% 3.5 mph SE5.6 kmh SE 5.8 mph9.3 kmh 30.02 in1016.6 mb - 0.00 in0.0 mm 0.00 in0.0 mm
10:20 AM 63.8°F17.7°C 53.4°F11.9°C 69% 3.5 mph SE5.6 kmh SE 3.5 mph5.6 kmh 30.01 in1016.3 mb - 0.00 in0.0 mm 0.00 in0.0 mm
10:25 AM 64.0°F17.8°C 53.6°F12.0°C 69% 1.2 mph SE1.9 kmh SE 2.3 mph3.7 kmh 30.01 in1016.3 mb - 0.00 in0.0 mm 0.00 in0.0 mm
10:30 AM 64.4°F18.0°C 54.0°F12.2°C 69% 1.2 mph SE1.9 kmh SE 3.5 mph5.6 kmh 30.01 in1016.3 mb - 0.00 in0.0 mm 0.00 in0.0 mm
10:35 AM 64.9°F18.3°C 54.1°F12.3°C 68% 3.5 mph SSE5.6 kmh SSE 5.8 mph9.3 kmh 30.01 in1016.3 mb - 0.00 in0.0 mm 0.00 in0.0 mm
10:40 AM 65.0°F18.3°C 54.2°F12.3°C 68% 1.2 mph SE1.9 kmh SE 3.5 mph5.6 kmh 30.01 in1016.3 mb - 0.00 in0.0 mm 0.00 in0.0 mm
10:45 AM 64.9°F18.3°C 54.1°F12.3°C 68% 4.6 mph SSE7.4 kmh SSE 5.8 mph9.3 kmh 30.01 in1016.3 mb - 0.00 in0.0 mm 0.00 in0.0 mm
10:50 AM 65.2°F18.4°C 54.3°F12.4°C 68% 2.3 mph ESE3.7 kmh ESE 3.5 mph5.6 kmh 30.01 in1016.3 mb - 0.00 in0.0 mm 0.00 in0.0 mm
10:55 AM 65.7°F18.7°C 54.9°F12.7°C 68% 2.3 mph SE3.7 kmh SE 4.6 mph7.4 kmh 30.00 in1015.9 mb - 0.00 in0.0 mm 0.00 in0.0 mm
11:00 AM 66.2°F19.0°C 54.5°F12.5°C 66% 1.2 mph S1.9 kmh S 3.5 mph5.6 kmh 30.00 in1015.9 mb - 0.00 in0.0 mm 0.00 in0.0 mm
11:05 AM 66.2°F19.0°C 55.3°F12.9°C 68% 3.5 mph S5.6 kmh S 3.5 mph5.6 kmh 30.00 in1015.9 mb - 0.00 in0.0 mm 0.00 in0.0 mm
11:10 AM 66.5°F19.2°C 54.8°F12.7°C 66% 4.6 mph S7.4 kmh S 8.1 mph13.0 kmh 30.00 in1015.9 mb - 0.00 in0.0 mm 0.00 in0.0 mm
11:15 AM 66.6°F19.2°C 55.3°F12.9°C 67% 3.5 mph SE5.6 kmh SE 8.1 mph13.0 kmh 30.00 in1015.9 mb - 0.00 in0.0 mm 0.00 in0.0 mm
11:20 AM 66.9°F19.4°C 55.6°F13.1°C 67% 3.5 mph SSE5.6 kmh SSE 4.6 mph7.4 kmh 30.00 in1015.9 mb - 0.00 in0.0 mm 0.00 in0.0 mm
11:25 AM 66.9°F19.4°C 55.6°F13.1°C 67% 2.3 mph NE3.7 kmh NE 3.5 mph5.6 kmh 29.99 in1015.6 mb - 0.00 in0.0 mm 0.00 in0.0 mm
11:30 AM 67.0°F19.4°C 55.7°F13.2°C 67% 3.5 mph ESE5.6 kmh ESE 4.6 mph7.4 kmh 29.99 in1015.6 mb - 0.00 in0.0 mm 0.00 in0.0 mm
11:35 AM 67.6°F19.8°C 56.2°F13.4°C 67% 2.3 mph SE3.7 kmh SE 4.6 mph7.4 kmh 29.99 in1015.6 mb - 0.00 in0.0 mm 0.00 in0.0 mm
11:40 AM 67.7°F19.8°C 55.9°F13.3°C 66% 1.2 mph SSW1.9 kmh SSW 3.5 mph5.6 kmh 29.99 in1015.6 mb - 0.00 in0.0 mm 0.00 in0.0 mm
11:45 AM 68.0°F20.0°C 55.8°F13.2°C 65% 4.6 mph SE7.4 kmh SE 6.9 mph11.1 kmh 29.99 in1015.6 mb - 0.00 in0.0 mm 0.00 in0.0 mm
11:50 AM 68.6°F20.3°C 56.4°F13.6°C 65% 1.2 mph SE1.9 kmh SE 3.5 mph5.6 kmh 29.99 in1015.6 mb - 0.00 in0.0 mm 0.00 in0.0 mm
11:55 AM 69.1°F20.6°C 56.4°F13.6°C 64% 3.5 mph S5.6 kmh S 5.8 mph9.3 kmh 29.99 in1015.6 mb - 0.00 in0.0 mm 0.00 in0.0 mm
12:00 PM 69.1°F20.6°C 56.8°F13.8°C 65% 2.3 mph S3.7 kmh S 3.5 mph5.6 kmh 29.99 in1015.6 mb - 0.00 in0.0 mm 0.00 in0.0 mm
12:05 PM 69.2°F20.7°C 56.5°F13.6°C 64% 3.5 mph SSE5.6 kmh SSE 4.6 mph7.4 kmh 29.99 in1015.6 mb - 0.00 in0.0 mm 0.00 in0.0 mm
12:10 PM 69.4°F20.8°C 56.7°F13.7°C 64% 3.5 mph SSE5.6 kmh SSE 4.6 mph7.4 kmh 29.99 in1015.6 mb - 0.00 in0.0 mm 0.00 in0.0 mm
12:15 PM 69.7°F20.9°C 57.4°F14.1°C 65% 2.3 mph S3.7 kmh S 6.9 mph11.1 kmh 29.98 in1015.2 mb - 0.00 in0.0 mm 0.00 in0.0 mm
12:20 PM 69.7°F20.9°C 56.6°F13.7°C 63% 4.6 mph S7.4 kmh S 9.2 mph14.8 kmh 29.98 in1015.2 mb - 0.00 in0.0 mm 0.00 in0.0 mm
12:25 PM 69.4°F20.8°C 56.7°F13.7°C 64% 3.5 mph SSW5.6 kmh SSW 5.8 mph9.3 kmh 29.98 in1015.2 mb - 0.00 in0.0 mm 0.00 in0.0 mm
12:30 PM 69.3°F20.7°C 56.1°F13.4°C 63% 4.6 mph S7.4 kmh S 5.8 mph9.3 kmh 29.98 in1015.2 mb - 0.00 in0.0 mm 0.00 in0.0 mm
12:35 PM 69.7°F20.9°C 56.6°F13.7°C 63% 4.6 mph SSE7.4 kmh SSE 8.1 mph13.0 kmh 29.98 in1015.2 mb - 0.00 in0.0 mm 0.00 in0.0 mm
12:40 PM 70.1°F21.2°C 56.5°F13.6°C 62% 3.5 mph SE5.6 kmh SE 3.5 mph5.6 kmh 29.98 in1015.2 mb - 0.00 in0.0 mm 0.00 in0.0 mm
12:45 PM 70.2°F21.2°C 56.6°F13.7°C 62% 5.8 mph SSE9.3 kmh SSE 9.2 mph14.8 kmh 29.98 in1015.2 mb - 0.00 in0.0 mm 0.00 in0.0 mm
12:50 PM 70.5°F21.4°C 56.4°F13.6°C 61% 3.5 mph SE5.6 kmh SE 3.5 mph5.6 kmh 29.98 in1015.2 mb - 0.00 in0.0 mm 0.00 in0.0 mm
12:55 PM 70.7°F21.5°C 56.6°F13.7°C 61% 3.5 mph SSE5.6 kmh SSE 6.9 mph11.1 kmh 29.98 in1015.2 mb - 0.00 in0.0 mm 0.00 in0.0 mm
01:00 PM 71.0°F21.7°C 56.4°F13.6°C 60% 4.6 mph SSE7.4 kmh SSE 10.4 mph16.7 kmh 29.98 in1015.2 mb - 0.00 in0.0 mm 0.00 in0.0 mm
01:05 PM 71.2°F21.8°C 56.1°F13.4°C 59% 4.6 mph S7.4 kmh S 6.9 mph11.1 kmh 29.97 in1014.9 mb - 0.00 in0.0 mm 0.00 in0.0 mm
01:10 PM 71.3°F21.8°C 55.8°F13.2°C 58% 4.6 mph S7.4 kmh S 5.8 mph9.3 kmh 29.97 in1014.9 mb - 0.00 in0.0 mm 0.00 in0.0 mm
01:15 PM 71.5°F21.9°C 56.4°F13.6°C 59% 4.6 mph SSE7.4 kmh SSE 8.1 mph13.0 kmh 29.97 in1014.9 mb - 0.00 in0.0 mm 0.00 in0.0 mm
01:20 PM 71.5°F21.9°C 56.5°F13.6°C 59% 3.5 mph SE5.6 kmh SE 8.1 mph13.0 kmh 29.97 in1014.9 mb - 0.00 in0.0 mm 0.00 in0.0 mm
01:25 PM 71.9°F22.2°C 56.8°F13.8°C 59% 4.6 mph SSE7.4 kmh SSE 9.2 mph14.8 kmh 29.97 in1014.9 mb - 0.00 in0.0 mm 0.00 in0.0 mm
01:30 PM 72.0°F22.2°C 57.3°F14.1°C 60% 4.6 mph SE7.4 kmh SE 9.2 mph14.8 kmh 29.97 in1014.9 mb - 0.00 in0.0 mm 0.00 in0.0 mm
01:35 PM 72.3°F22.4°C 56.7°F13.7°C 58% 8.1 mph S13.0 kmh S 10.4 mph16.7 kmh 29.97 in1014.9 mb - 0.00 in0.0 mm 0.00 in0.0 mm
01:40 PM 71.7°F22.1°C 57.1°F13.9°C 60% 4.6 mph S7.4 kmh S 11.5 mph18.5 kmh 29.97 in1014.9 mb - 0.00 in0.0 mm 0.00 in0.0 mm
01:45 PM 71.3°F21.8°C 56.7°F13.7°C 60% 5.8 mph S9.3 kmh S 9.2 mph14.8 kmh 29.96 in1014.6 mb - 0.00 in0.0 mm 0.00 in0.0 mm
01:50 PM 71.3°F21.8°C 56.7°F13.7°C 60% 4.6 mph S7.4 kmh S 8.1 mph13.0 kmh 29.96 in1014.6 mb - 0.00 in0.0 mm 0.00 in0.0 mm
01:55 PM 71.7°F22.1°C 57.0°F13.9°C 60% 4.6 mph SE7.4 kmh SE 5.8 mph9.3 kmh 29.96 in1014.6 mb - 0.00 in0.0 mm 0.00 in0.0 mm
02:00 PM 71.8°F22.1°C 57.2°F14.0°C 60% 6.9 mph SSE11.1 kmh SSE 10.4 mph16.7 kmh 29.96 in1014.6 mb - 0.00 in0.0 mm 0.00 in0.0 mm
02:05 PM 71.8°F22.1°C 57.1°F13.9°C 60% 5.8 mph S9.3 kmh S 6.9 mph11.1 kmh 29.96 in1014.6 mb - 0.00 in0.0 mm 0.00 in0.0 mm
02:10 PM 71.7°F22.1°C 57.5°F14.2°C 61% 4.6 mph SSE7.4 kmh SSE 9.2 mph14.8 kmh 29.96 in1014.6 mb - 0.00 in0.0 mm 0.00 in0.0 mm
02:15 PM 71.8°F22.1°C 57.2°F14.0°C 60% 8.1 mph S13.0 kmh S 11.5 mph18.5 kmh 29.96 in1014.6 mb - 0.00 in0.0 mm 0.00 in0.0 mm
02:20 PM 71.5°F21.9°C 57.4°F14.1°C 61% 6.9 mph S11.1 kmh S 12.7 mph20.4 kmh 29.96 in1014.6 mb - 0.00 in0.0 mm 0.00 in0.0 mm
02:25 PM 71.2°F21.8°C 57.1°F13.9°C 61% 9.2 mph S14.8 kmh S 12.7 mph20.4 kmh 29.96 in1014.6 mb - 0.00 in0.0 mm 0.00 in0.0 mm
02:30 PM 70.6°F21.4°C 56.9°F13.8°C 62% 8.1 mph S13.0 kmh S 13.8 mph22.2 kmh 29.96 in1014.6 mb - 0.00 in0.0 mm 0.00 in0.0 mm
02:35 PM 69.8°F21.0°C 56.2°F13.4°C 62% 9.2 mph S14.8 kmh S 11.5 mph18.5 kmh 29.96 in1014.6 mb - 0.00 in0.0 mm 0.00 in0.0 mm
02:40 PM 69.1°F20.6°C 56.4°F13.6°C 64% 6.9 mph S11.1 kmh S 10.4 mph16.7 kmh 29.96 in1014.6 mb - 0.00 in0.0 mm 0.00 in0.0 mm
02:45 PM 69.3°F20.7°C 56.6°F13.7°C 64% 5.8 mph SSE9.3 kmh SSE 9.2 mph14.8 kmh 29.96 in1014.6 mb - 0.00 in0.0 mm 0.00 in0.0 mm
02:50 PM 69.8°F21.0°C 56.6°F13.7°C 63% 8.1 mph S13.0 kmh S 10.4 mph16.7 kmh 29.95 in1014.2 mb - 0.00 in0.0 mm 0.00 in0.0 mm
02:55 PM 70.1°F21.2°C 56.9°F13.8°C 63% 5.8 mph S9.3 kmh S 10.4 mph16.7 kmh 29.95 in1014.2 mb - 0.00 in0.0 mm 0.00 in0.0 mm
03:00 PM 70.4°F21.3°C 57.2°F14.0°C 63% 6.9 mph SSE11.1 kmh SSE 8.1 mph13.0 kmh 29.95 in1014.2 mb - 0.00 in0.0 mm 0.00 in0.0 mm
03:05 PM 70.9°F21.6°C 57.2°F14.0°C 62% 6.9 mph S11.1 kmh S 10.4 mph16.7 kmh 29.95 in1014.2 mb - 0.00 in0.0 mm 0.00 in0.0 mm
03:10 PM 70.6°F21.4°C 56.9°F13.8°C 62% 8.1 mph S13.0 kmh S 10.4 mph16.7 kmh 29.95 in1014.2 mb - 0.00 in0.0 mm 0.00 in0.0 mm
03:15 PM 70.6°F21.4°C 57.8°F14.3°C 64% 5.8 mph SSW9.3 kmh SSW 10.4 mph16.7 kmh 29.95 in1014.2 mb - 0.00 in0.0 mm 0.00 in0.0 mm
03:20 PM 70.1°F21.2°C 56.5°F13.6°C 62% 9.2 mph SSE14.8 kmh SSE 11.5 mph18.5 kmh 29.96 in1014.6 mb - 0.00 in0.0 mm 0.00 in0.0 mm
03:25 PM 69.4°F20.8°C 56.3°F13.5°C 63% 5.8 mph SSE9.3 kmh SSE 13.8 mph22.2 kmh 29.96 in1014.6 mb - 0.00 in0.0 mm 0.00 in0.0 mm
03:30 PM 67.8°F19.9°C 55.1°F12.8°C 64% 4.6 mph SSW7.4 kmh SSW 6.9 mph11.1 kmh 29.98 in1015.2 mb - 0.00 in0.0 mm 0.00 in0.0 mm
03:35 PM 66.6°F19.2°C 55.3°F12.9°C 67% 3.5 mph SW5.6 kmh SW 4.6 mph7.4 kmh 29.98 in1015.2 mb - 0.00 in0.0 mm 0.00 in0.0 mm
03:40 PM 65.6°F18.7°C 54.4°F12.4°C 67% 3.5 mph SSE5.6 kmh SSE 5.8 mph9.3 kmh 29.98 in1015.2 mb - 0.00 in0.0 mm 0.00 in0.0 mm
03:45 PM 65.1°F18.4°C 54.7°F12.6°C 69% 2.3 mph SSW3.7 kmh SSW 4.6 mph7.4 kmh 29.98 in1015.2 mb - 0.00 in0.0 mm 0.00 in0.0 mm
03:50 PM 64.7°F18.2°C 54.7°F12.6°C 70% 3.5 mph SE5.6 kmh SE 8.1 mph13.0 kmh 29.97 in1014.9 mb - 0.00 in0.0 mm 0.00 in0.0 mm
03:55 PM 64.8°F18.2°C 54.4°F12.4°C 69% 4.6 mph S7.4 kmh S 9.2 mph14.8 kmh 29.98 in1015.2 mb - 0.00 in0.0 mm 0.00 in0.0 mm
04:00 PM 64.6°F18.1°C 54.2°F12.3°C 69% 4.6 mph SSE7.4 kmh SSE 5.8 mph9.3 kmh 29.98 in1015.2 mb - 0.00 in0.0 mm 0.00 in0.0 mm
04:05 PM 64.4°F18.0°C 54.0°F12.2°C 69% 5.8 mph SSE9.3 kmh SSE 9.2 mph14.8 kmh 29.98 in1015.2 mb - 0.00 in0.0 mm 0.00 in0.0 mm
04:10 PM 64.3°F17.9°C 53.9°F12.2°C 69% 5.8 mph SE9.3 kmh SE 10.4 mph16.7 kmh 29.98 in1015.2 mb - 0.00 in0.0 mm 0.00 in0.0 mm
04:15 PM 64.2°F17.9°C 53.8°F12.1°C 69% 6.9 mph SE11.1 kmh SE 11.5 mph18.5 kmh 29.98 in1015.2 mb - 0.00 in0.0 mm 0.00 in0.0 mm
04:20 PM 63.9°F17.7°C 53.5°F11.9°C 69% 3.5 mph SE5.6 kmh SE 8.1 mph13.0 kmh 29.98 in1015.2 mb - 0.00 in0.0 mm 0.00 in0.0 mm
04:25 PM 63.7°F17.6°C 53.7°F12.1°C 70% 4.6 mph E7.4 kmh E 6.9 mph11.1 kmh 29.98 in1015.2 mb - 0.00 in0.0 mm 0.00 in0.0 mm
04:30 PM 63.5°F17.5°C 53.5°F11.9°C 70% 5.8 mph ENE9.3 kmh ENE 8.1 mph13.0 kmh 29.97 in1014.9 mb - 0.00 in0.0 mm 0.00 in0.0 mm
04:35 PM 63.3°F17.4°C 53.7°F12.1°C 71% 4.6 mph E7.4 kmh E 6.9 mph11.1 kmh 29.98 in1015.2 mb - 0.00 in0.0 mm 0.00 in0.0 mm
04:40 PM 63.3°F17.4°C 54.5°F12.5°C 73% 5.8 mph W9.3 kmh W 10.4 mph16.7 kmh 30.00 in1015.9 mb - 0.00 in0.0 mm 0.00 in0.0 mm
04:45 PM 62.2°F16.8°C 53.8°F12.1°C 74% 5.8 mph WSW9.3 kmh WSW 9.2 mph14.8 kmh 30.00 in1015.9 mb - 0.00 in0.0 mm 0.00 in0.0 mm
04:50 PM 61.2°F16.2°C 53.2°F11.8°C 75% 2.3 mph WSW3.7 kmh WSW 3.5 mph5.6 kmh 29.99 in1015.6 mb - 0.00 in0.0 mm 0.00 in0.0 mm
04:55 PM 60.5°F15.8°C 52.9°F11.6°C 76% 2.3 mph WSW3.7 kmh WSW 3.5 mph5.6 kmh 29.99 in1015.6 mb - 0.00 in0.0 mm 0.00 in0.0 mm
05:00 PM 59.6°F15.3°C 52.0°F11.1°C 76% 2.3 mph S3.7 kmh S 4.6 mph7.4 kmh 29.99 in1015.6 mb - 0.00 in0.0 mm 0.00 in0.0 mm
05:05 PM 59.4°F15.2°C 51.8°F11.0°C 76% 3.5 mph SSE5.6 kmh SSE 4.6 mph7.4 kmh 29.99 in1015.6 mb - 0.01 in0.3 mm 0.01 in0.3 mm
05:10 PM 59.0°F15.0°C 51.4°F10.8°C 76% 2.3 mph SE3.7 kmh SE 4.6 mph7.4 kmh 30.00 in1015.9 mb - 0.01 in0.3 mm 0.02 in0.5 mm
05:15 PM 58.4°F14.7°C 50.9°F10.5°C 76% 2.3 mph SE3.7 kmh SE 3.5 mph5.6 kmh 30.00 in1015.9 mb - 0.00 in0.0 mm 0.02 in0.5 mm
05:20 PM 58.2°F14.6°C 50.7°F10.4°C 76% 3.5 mph SE5.6 kmh SE 5.8 mph9.3 kmh 29.99 in1015.6 mb - 0.01 in0.3 mm 0.03 in0.8 mm
05:25 PM 57.9°F14.4°C 50.4°F10.2°C 76% 1.2 mph E1.9 kmh E 1.2 mph1.9 kmh 29.99 in1015.6 mb - 0.00 in0.0 mm 0.03 in0.8 mm
05:30 PM 57.7°F14.3°C 50.2°F10.1°C 76% 2.3 mph NE3.7 kmh NE 3.5 mph5.6 kmh 29.99 in1015.6 mb - 0.00 in0.0 mm 0.03 in0.8 mm
05:35 PM 57.5°F14.2°C 50.0°F10.0°C 76% 1.2 mph NNE1.9 kmh NNE 2.3 mph3.7 kmh 29.99 in1015.6 mb - 0.00 in0.0 mm 0.03 in0.8 mm
05:40 PM 57.5°F14.2°C 50.0°F10.0°C 76% Calm Calm -- 29.99 in1015.6 mb - 0.00 in0.0 mm 0.03 in0.8 mm
05:45 PM 57.5°F14.2°C 50.0°F10.0°C 76% 1.2 mph NE1.9 kmh NE 2.3 mph3.7 kmh 29.99 in1015.6 mb - 0.00 in0.0 mm 0.03 in0.8 mm
05:50 PM 57.5°F14.2°C 50.0°F10.0°C 76% 2.3 mph N3.7 kmh N 3.5 mph5.6 kmh 29.99 in1015.6 mb - 0.00 in0.0 mm 0.03 in0.8 mm
05:55 PM 57.5°F14.2°C 50.0°F10.0°C 76% Calm Calm 3.5 mph5.6 kmh 29.99 in1015.6 mb - 0.00 in0.0 mm 0.03 in0.8 mm
06:00 PM 57.6°F14.2°C 50.1°F10.1°C 76% Calm Calm 1.2 mph1.9 kmh 29.99 in1015.6 mb - 0.00 in0.0 mm 0.03 in0.8 mm
06:05 PM 57.7°F14.3°C 50.2°F10.1°C 76% 3.5 mph NW5.6 kmh NW 4.6 mph7.4 kmh 29.99 in1015.6 mb - 0.00 in0.0 mm 0.03 in0.8 mm
06:10 PM 57.8°F14.3°C 50.3°F10.2°C 76% 2.3 mph NE3.7 kmh NE 2.3 mph3.7 kmh 29.98 in1015.2 mb - 0.00 in0.0 mm 0.03 in0.8 mm
06:15 PM 58.0°F14.4°C 50.5°F10.3°C 76% 2.3 mph SW3.7 kmh SW 3.5 mph5.6 kmh 29.98 in1015.2 mb - 0.00 in0.0 mm 0.03 in0.8 mm
06:20 PM 57.8°F14.3°C 50.3°F10.2°C 76% 4.6 mph SW7.4 kmh SW 6.9 mph11.1 kmh 29.98 in1015.2 mb - 0.00 in0.0 mm 0.03 in0.8 mm
06:25 PM 57.8°F14.3°C 50.3°F10.2°C 76% Calm Calm 1.2 mph1.9 kmh 29.98 in1015.2 mb - 0.00 in0.0 mm 0.03 in0.8 mm
06:30 PM 57.7°F14.3°C 50.2°F10.1°C 76% 2.3 mph SW3.7 kmh SW 2.3 mph3.7 kmh 29.98 in1015.2 mb - 0.00 in0.0 mm 0.03 in0.8 mm
06:35 PM 57.5°F14.2°C 50.0°F10.0°C 76% 2.3 mph SW3.7 kmh SW 3.5 mph5.6 kmh 29.98 in1015.2 mb - 0.00 in0.0 mm 0.03 in0.8 mm
06:40 PM 57.2°F14.0°C 50.1°F10.1°C 77% 2.3 mph SW3.7 kmh SW 3.5 mph5.6 kmh 29.98 in1015.2 mb - 0.00 in0.0 mm 0.03 in0.8 mm
06:45 PM 57.0°F13.9°C 49.5°F9.7°C 76% 1.2 mph SW1.9 kmh SW 3.5 mph5.6 kmh 29.99 in1015.6 mb - 0.00 in0.0 mm 0.03 in0.8 mm
06:50 PM 57.0°F13.9°C 49.9°F9.9°C 77% Calm Calm -- 29.98 in1015.2 mb - 0.00 in0.0 mm 0.03 in0.8 mm
06:55 PM 57.0°F13.9°C 49.9°F9.9°C 77% Calm Calm -- 29.98 in1015.2 mb - 0.00 in0.0 mm 0.03 in0.8 mm
07:00 PM 57.1°F13.9°C 49.9°F9.9°C 77% 2.3 mph S3.7 kmh S 4.6 mph7.4 kmh 29.98 in1015.2 mb - 0.00 in0.0 mm 0.03 in0.8 mm
07:05 PM 57.2°F14.0°C 50.1°F10.1°C 77% 1.2 mph SE1.9 kmh SE 2.3 mph3.7 kmh 29.98 in1015.2 mb - 0.00 in0.0 mm 0.03 in0.8 mm
07:10 PM 57.2°F14.0°C 50.0°F10.0°C 77% 2.3 mph SSW3.7 kmh SSW 3.5 mph5.6 kmh 29.98 in1015.2 mb - 0.00 in0.0 mm 0.03 in0.8 mm
07:20 PM 56.9°F13.8°C 49.8°F9.9°C 77% 3.5 mph SE5.6 kmh SE 3.5 mph5.6 kmh 29.98 in1015.2 mb - 0.00 in0.0 mm 0.03 in0.8 mm
07:25 PM 56.9°F13.8°C 49.8°F9.9°C 77% 3.5 mph SSE5.6 kmh SSE 4.6 mph7.4 kmh 29.98 in1015.2 mb - 0.00 in0.0 mm 0.03 in0.8 mm
07:30 PM 56.7°F13.7°C 49.6°F9.8°C 77% 3.5 mph SSE5.6 kmh SSE 3.5 mph5.6 kmh 29.98 in1015.2 mb - 0.00 in0.0 mm 0.03 in0.8 mm
07:35 PM 56.6°F13.7°C 49.5°F9.7°C 77% 2.3 mph SSW3.7 kmh SSW 3.5 mph5.6 kmh 29.99 in1015.6 mb - 0.00 in0.0 mm 0.03 in0.8 mm
07:40 PM 56.2°F13.4°C 49.1°F9.5°C 77% 2.3 mph SSE3.7 kmh SSE 4.6 mph7.4 kmh 29.99 in1015.6 mb - 0.00 in0.0 mm 0.03 in0.8 mm
07:45 PM 56.1°F13.4°C 49.0°F9.4°C 77% 3.5 mph SSE5.6 kmh SSE 4.6 mph7.4 kmh 29.99 in1015.6 mb - 0.00 in0.0 mm 0.03 in0.8 mm
07:50 PM 56.1°F13.4°C 48.9°F9.4°C 77% 1.2 mph S1.9 kmh S 3.5 mph5.6 kmh 29.99 in1015.6 mb - 0.00 in0.0 mm 0.03 in0.8 mm
07:55 PM 56.1°F13.4°C 49.0°F9.4°C 77% 3.5 mph SE5.6 kmh SE 5.8 mph9.3 kmh 29.99 in1015.6 mb - 0.00 in0.0 mm 0.03 in0.8 mm
08:00 PM 56.0°F13.3°C 48.9°F9.4°C 77% 1.2 mph S1.9 kmh S 3.5 mph5.6 kmh 29.99 in1015.6 mb - 0.00 in0.0 mm 0.03 in0.8 mm
08:05 PM 55.8°F13.2°C 48.7°F9.3°C 77% 3.5 mph SE5.6 kmh SE 6.9 mph11.1 kmh 29.99 in1015.6 mb - 0.00 in0.0 mm 0.03 in0.8 mm
08:10 PM 55.9°F13.3°C 48.8°F9.3°C 77% 2.3 mph SSE3.7 kmh SSE 3.5 mph5.6 kmh 29.99 in1015.6 mb - 0.00 in0.0 mm 0.03 in0.8 mm
08:15 PM 55.8°F13.2°C 48.7°F9.3°C 77% 4.6 mph E7.4 kmh E 6.9 mph11.1 kmh 29.99 in1015.6 mb - 0.00 in0.0 mm 0.03 in0.8 mm
08:20 PM 55.8°F13.2°C 48.7°F9.3°C 77% 2.3 mph SE3.7 kmh SE 3.5 mph5.6 kmh 29.99 in1015.6 mb - 0.00 in0.0 mm 0.03 in0.8 mm
08:25 PM 55.6°F13.1°C 48.5°F9.2°C 77% 2.3 mph SE3.7 kmh SE 5.8 mph9.3 kmh 29.99 in1015.6 mb - 0.00 in0.0 mm 0.03 in0.8 mm
08:30 PM 55.5°F13.1°C 48.4°F9.1°C 77% 2.3 mph SE3.7 kmh SE 3.5 mph5.6 kmh 29.99 in1015.6 mb - 0.00 in0.0 mm 0.03 in0.8 mm
08:35 PM 55.5°F13.1°C 48.4°F9.1°C 77% 2.3 mph SE3.7 kmh SE 5.8 mph9.3 kmh 29.99 in1015.6 mb - 0.00 in0.0 mm 0.03 in0.8 mm
08:40 PM 55.5°F13.1°C 48.4°F9.1°C 77% 4.6 mph ESE7.4 kmh ESE 10.4 mph16.7 kmh 29.99 in1015.6 mb - 0.00 in0.0 mm 0.03 in0.8 mm
08:45 PM 55.4°F13.0°C 48.3°F9.1°C 77% 2.3 mph SSE3.7 kmh SSE 3.5 mph5.6 kmh 30.00 in1015.9 mb - 0.00 in0.0 mm 0.03 in0.8 mm
08:50 PM 55.1°F12.8°C 48.1°F8.9°C 77% 1.2 mph ESE1.9 kmh ESE 1.2 mph1.9 kmh 30.00 in1015.9 mb - 0.00 in0.0 mm 0.03 in0.8 mm
08:55 PM 55.1°F12.8°C 48.0°F8.9°C 77% 2.3 mph ESE3.7 kmh ESE 3.5 mph5.6 kmh 30.00 in1015.9 mb - 0.00 in0.0 mm 0.03 in0.8 mm
09:00 PM 55.0°F12.8°C 47.9°F8.8°C 77% 3.5 mph SE5.6 kmh SE 3.5 mph5.6 kmh 30.00 in1015.9 mb - 0.00 in0.0 mm 0.03 in0.8 mm
09:05 PM 55.0°F12.8°C 47.9°F8.8°C 77% 3.5 mph SE5.6 kmh SE 3.5 mph5.6 kmh 30.00 in1015.9 mb - 0.00 in0.0 mm 0.03 in0.8 mm
09:10 PM 55.0°F12.8°C 47.9°F8.8°C 77% 2.3 mph SE3.7 kmh SE 4.6 mph7.4 kmh 30.01 in1016.3 mb - 0.00 in0.0 mm 0.03 in0.8 mm
09:15 PM 54.9°F12.7°C 47.8°F8.8°C 77% 2.3 mph E3.7 kmh E 3.5 mph5.6 kmh 30.00 in1015.9 mb - 0.00 in0.0 mm 0.03 in0.8 mm
09:20 PM 55.0°F12.8°C 47.9°F8.8°C 77% 4.6 mph E7.4 kmh E 8.1 mph13.0 kmh 30.01 in1016.3 mb - 0.00 in0.0 mm 0.03 in0.8 mm
09:25 PM 54.9°F12.7°C 47.8°F8.8°C 77% 4.6 mph E7.4 kmh E 5.8 mph9.3 kmh 30.01 in1016.3 mb - 0.00 in0.0 mm 0.03 in0.8 mm
09:30 PM 54.9°F12.7°C 47.8°F8.8°C 77% 2.3 mph ESE3.7 kmh ESE 3.5 mph5.6 kmh 30.01 in1016.3 mb - 0.00 in0.0 mm 0.03 in0.8 mm
09:35 PM 54.9°F12.7°C 47.8°F8.8°C 77% 2.3 mph SE3.7 kmh SE 2.3 mph3.7 kmh 30.01 in1016.3 mb - 0.00 in0.0 mm 0.03 in0.8 mm
09:40 PM 54.8°F12.7°C 47.7°F8.7°C 77% 1.2 mph SE1.9 kmh SE 2.3 mph3.7 kmh 30.01 in1016.3 mb - 0.00 in0.0 mm 0.03 in0.8 mm
09:45 PM 54.8°F12.7°C 47.7°F8.7°C 77% 2.3 mph SE3.7 kmh SE 3.5 mph5.6 kmh 30.01 in1016.3 mb - 0.00 in0.0 mm 0.03 in0.8 mm
09:50 PM 54.8°F12.7°C 47.7°F8.7°C 77% 2.3 mph E3.7 kmh E 3.5 mph5.6 kmh 30.01 in1016.3 mb - 0.00 in0.0 mm 0.03 in0.8 mm
09:55 PM 54.8°F12.7°C 47.7°F8.7°C 77% 4.6 mph E7.4 kmh E 4.6 mph7.4 kmh 30.01 in1016.3 mb - 0.00 in0.0 mm 0.03 in0.8 mm
10:00 PM 54.6°F12.6°C 47.5°F8.6°C 77% 4.6 mph E7.4 kmh E 5.8 mph9.3 kmh 30.00 in1015.9 mb - 0.00 in0.0 mm 0.03 in0.8 mm
10:05 PM 54.6°F12.6°C 47.5°F8.6°C 77% 3.5 mph E5.6 kmh E 4.6 mph7.4 kmh 30.00 in1015.9 mb - 0.00 in0.0 mm 0.03 in0.8 mm
10:10 PM 54.5°F12.5°C 47.4°F8.6°C 77% 2.3 mph E3.7 kmh E 2.3 mph3.7 kmh 30.01 in1016.3 mb - 0.00 in0.0 mm 0.03 in0.8 mm
10:15 PM 54.4°F12.4°C 47.4°F8.6°C 77% Calm Calm -- 30.01 in1016.3 mb - 0.00 in0.0 mm 0.03 in0.8 mm
10:20 PM 54.5°F12.5°C 47.4°F8.6°C 77% 1.2 mph E1.9 kmh E 1.2 mph1.9 kmh 30.01 in1016.3 mb - 0.00 in0.0 mm 0.03 in0.8 mm
10:25 PM 54.5°F12.5°C 47.4°F8.6°C 77% Calm Calm 3.5 mph5.6 kmh 30.01 in1016.3 mb - 0.00 in0.0 mm 0.03 in0.8 mm
10:30 PM 54.4°F12.4°C 47.4°F8.6°C 77% 1.2 mph SSE1.9 kmh SSE 2.3 mph3.7 kmh 30.01 in1016.3 mb - 0.00 in0.0 mm 0.03 in0.8 mm
10:35 PM 54.4°F12.4°C 47.3°F8.5°C 77% Calm Calm -- 30.01 in1016.3 mb - 0.00 in0.0 mm 0.03 in0.8 mm
10:40 PM 54.3°F12.4°C 47.3°F8.5°C 77% 2.3 mph SSE3.7 kmh SSE 2.3 mph3.7 kmh 30.02 in1016.6 mb - 0.00 in0.0 mm 0.03 in0.8 mm
10:45 PM 54.2°F12.3°C 47.1°F8.4°C 77% 2.3 mph SE3.7 kmh SE 3.5 mph5.6 kmh 30.01 in1016.3 mb - 0.00 in0.0 mm 0.03 in0.8 mm
10:50 PM 54.2°F12.3°C 47.1°F8.4°C 77% 3.5 mph SE5.6 kmh SE 6.9 mph11.1 kmh 30.01 in1016.3 mb - 0.00 in0.0 mm 0.03 in0.8 mm
10:55 PM 54.2°F12.3°C 47.2°F8.4°C 77% 2.3 mph ESE3.7 kmh ESE 3.5 mph5.6 kmh 30.01 in1016.3 mb - 0.00 in0.0 mm 0.03 in0.8 mm
11:00 PM 54.2°F12.3°C 47.1°F8.4°C 77% 3.5 mph SE5.6 kmh SE 4.6 mph7.4 kmh 30.01 in1016.3 mb - 0.00 in0.0 mm 0.03 in0.8 mm
11:05 PM 54.2°F12.3°C 47.1°F8.4°C 77% 2.3 mph SE3.7 kmh SE 3.5 mph5.6 kmh 30.01 in1016.3 mb - 0.00 in0.0 mm 0.03 in0.8 mm
11:10 PM 54.1°F12.3°C 47.0°F8.3°C 77% 2.3 mph ESE3.7 kmh ESE 3.5 mph5.6 kmh 30.02 in1016.6 mb - 0.00 in0.0 mm 0.03 in0.8 mm
11:15 PM 54.0°F12.2°C 47.0°F8.3°C 77% 4.6 mph E7.4 kmh E 6.9 mph11.1 kmh 30.01 in1016.3 mb - 0.00 in0.0 mm 0.03 in0.8 mm
11:20 PM 54.0°F12.2°C 47.0°F8.3°C 77% 3.5 mph ESE5.6 kmh ESE 5.8 mph9.3 kmh 30.01 in1016.3 mb - 0.00 in0.0 mm 0.03 in0.8 mm
11:25 PM 53.9°F12.2°C 46.9°F8.3°C 77% 3.5 mph ESE5.6 kmh ESE 5.8 mph9.3 kmh 30.01 in1016.3 mb - 0.00 in0.0 mm 0.03 in0.8 mm
11:30 PM 53.8°F12.1°C 46.8°F8.2°C 77% 3.5 mph SE5.6 kmh SE 3.5 mph5.6 kmh 30.01 in1016.3 mb - 0.00 in0.0 mm 0.03 in0.8 mm
11:35 PM 53.8°F12.1°C 46.8°F8.2°C 77% 3.5 mph E5.6 kmh E 3.5 mph5.6 kmh 30.01 in1016.3 mb - 0.00 in0.0 mm 0.03 in0.8 mm
11:40 PM 53.8°F12.1°C 46.8°F8.2°C 77% 3.5 mph E5.6 kmh E 3.5 mph5.6 kmh 30.01 in1016.3 mb - 0.00 in0.0 mm 0.03 in0.8 mm
11:45 PM 53.8°F12.1°C 46.8°F8.2°C 77% 3.5 mph E5.6 kmh E 5.8 mph9.3 kmh 30.01 in1016.3 mb - 0.00 in0.0 mm 0.03 in0.8 mm
11:50 PM 53.8°F12.1°C 46.8°F8.2°C 77% 3.5 mph E5.6 kmh E 5.8 mph9.3 kmh 30.00 in1015.9 mb - 0.00 in0.0 mm 0.03 in0.8 mm
11:55 PM 53.7°F12.1°C 46.7°F8.2°C 77% 2.3 mph E3.7 kmh E 3.5 mph5.6 kmh 30.00 in1015.9 mb - 0.00 in0.0 mm 0.03 in0.8 mm